createdAt,value
2019-05-07T00:00:55.678Z,0
2019-05-07T00:01:58.052Z,0
2019-05-07T00:02:55.125Z,0
2019-05-07T00:03:55.565Z,0
2019-05-07T00:04:54.920Z,0
2019-05-07T00:09:20.066Z,0
2019-05-07T00:10:35.841Z,0
2019-05-07T00:11:33.140Z,0
2019-05-07T00:12:35.538Z,0
2019-05-07T00:13:34.037Z,0
2019-05-07T00:14:37.680Z,0
2019-05-07T00:15:35.514Z,0
2019-05-07T00:16:35.262Z,0
2019-05-07T00:17:34.957Z,0
2019-05-07T00:18:34.945Z,0
2019-05-07T00:19:35.913Z,0
2019-05-07T00:20:35.432Z,0
2019-05-07T00:21:35.290Z,0
2019-05-07T00:22:35.347Z,0
2019-05-07T00:23:35.200Z,0
2019-05-07T00:24:34.145Z,0
2019-05-07T00:25:35.461Z,0
2019-05-07T00:26:34.711Z,0
2019-05-07T00:27:34.758Z,0
2019-05-07T00:28:35.140Z,0
2019-05-07T00:29:39.906Z,0
2019-05-07T00:30:33.275Z,0
2019-05-07T00:31:35.254Z,0
2019-05-07T00:32:32.946Z,0
2019-05-07T00:33:35.002Z,0
2019-05-07T00:34:35.396Z,0
2019-05-07T00:35:35.056Z,0
2019-05-07T00:36:35.246Z,0
2019-05-07T00:37:34.850Z,0
2019-05-07T00:38:34.635Z,0
2019-05-07T00:39:32.827Z,0
2019-05-07T00:40:34.804Z,0
2019-05-07T00:41:34.540Z,0
2019-05-07T00:42:32.800Z,0
2019-05-07T00:43:34.903Z,0
2019-05-07T00:44:32.821Z,0
2019-05-07T00:45:35.283Z,0
2019-05-07T00:46:34.881Z,0
2019-05-07T00:47:33.054Z,0
2019-05-07T00:48:33.129Z,0
2019-05-07T00:49:33.064Z,0
2019-05-07T00:50:33.211Z,0
2019-05-07T00:51:33.469Z,0
2019-05-07T00:52:35.988Z,0
2019-05-07T00:53:32.849Z,0
2019-05-07T00:54:35.181Z,0
2019-05-07T00:55:35.247Z,0
2019-05-07T01:00:53.080Z,0
2019-05-07T01:02:05.233Z,0
2019-05-07T01:03:05.791Z,0
2019-05-07T01:04:05.568Z,0
2019-05-07T01:05:06.087Z,0
2019-05-07T01:06:04.783Z,0
2019-05-07T01:07:05.549Z,0
2019-05-07T01:08:06.294Z,0
2019-05-07T01:09:15.894Z,0
2019-05-07T01:10:07.370Z,0
2019-05-07T01:11:05.057Z,0
2019-05-07T01:12:06.312Z,0
2019-05-07T01:13:08.016Z,0
2019-05-07T01:14:05.483Z,0
2019-05-07T01:15:05.757Z,0
2019-05-07T01:16:05.145Z,0
2019-05-07T01:17:05.241Z,0
2019-05-07T01:18:05.531Z,0
2019-05-07T01:19:04.868Z,0
2019-05-07T01:20:05.586Z,0
2019-05-07T01:21:05.185Z,0
2019-05-07T01:22:05.870Z,0
2019-05-07T01:23:08.148Z,0
2019-05-07T01:24:06.134Z,0
2019-05-07T01:25:05.028Z,0
2019-05-07T01:26:05.704Z,0
2019-05-07T01:27:05.426Z,0
2019-05-07T01:28:05.391Z,0
2019-05-07T01:29:08.415Z,0
2019-05-07T01:30:05.817Z,0
2019-05-07T01:31:04.827Z,0
2019-05-07T01:32:05.767Z,0
2019-05-07T01:33:05.491Z,0
2019-05-07T01:34:05.309Z,0
2019-05-07T01:35:05.743Z,0
2019-05-07T01:36:08.517Z,0
2019-05-07T01:37:08.090Z,0
2019-05-07T01:38:05.784Z,0
2019-05-07T01:39:15.748Z,0
2019-05-07T01:40:05.782Z,0
2019-05-07T01:41:08.455Z,0
2019-05-07T01:42:06.329Z,0
2019-05-07T01:43:05.701Z,0
2019-05-07T01:44:07.860Z,0
2019-05-07T01:45:05.247Z,0
2019-05-07T01:46:05.865Z,0
2019-05-07T01:47:05.541Z,0
2019-05-07T01:48:06.883Z,0
2019-05-07T01:49:08.298Z,0
2019-05-07T01:50:08.322Z,0
2019-05-07T01:51:06.164Z,0
2019-05-07T01:52:05.495Z,0
2019-05-07T01:53:06.564Z,0
2019-05-07T01:54:04.933Z,0
2019-05-07T01:55:05.987Z,0
2019-05-07T01:56:06.094Z,0
2019-05-07T01:57:05.543Z,0
2019-05-07T01:58:09.816Z,0
2019-05-07T01:59:05.703Z,0
2019-05-07T02:00:05.422Z,0
2019-05-07T02:01:05.529Z,0
2019-05-07T02:06:22.219Z,0
2019-05-07T02:07:33.493Z,0
2019-05-07T02:08:35.436Z,0
2019-05-07T02:09:34.007Z,0
2019-05-07T02:10:34.779Z,0
2019-05-07T02:11:35.256Z,0
2019-05-07T02:12:35.174Z,0
2019-05-07T02:13:36.783Z,0
2019-05-07T02:14:35.721Z,0
2019-05-07T02:15:35.013Z,0
2019-05-07T02:16:35.369Z,0
2019-05-07T02:17:39.142Z,0
2019-05-07T02:18:35.260Z,0
2019-05-07T02:19:35.450Z,0
2019-05-07T02:20:39.165Z,0
2019-05-07T02:21:35.486Z,0
2019-05-07T02:22:34.710Z,0
2019-05-07T02:23:35.519Z,0
2019-05-07T02:24:33.853Z,0
2019-05-07T02:25:36.863Z,0
2019-05-07T02:26:34.816Z,0
2019-05-07T02:27:35.423Z,0
2019-05-07T02:28:35.587Z,0
2019-05-07T02:29:38.063Z,0
2019-05-07T02:30:37.840Z,0
2019-05-07T02:31:36.470Z,0
2019-05-07T02:32:36.313Z,0
2019-05-07T02:33:35.033Z,0
2019-05-07T02:34:37.070Z,0
2019-05-07T02:35:36.003Z,0
2019-05-07T02:36:36.667Z,0
2019-05-07T02:38:03.080Z,0
2019-05-07T02:38:36.582Z,0
2019-05-07T02:43:53.645Z,0
2019-05-07T02:44:09.587Z,0
2019-05-07T02:45:09.510Z,0
2019-05-07T02:46:36.150Z,0
2019-05-07T02:47:06.733Z,0
2019-05-07T02:48:06.232Z,0
2019-05-07T02:49:08.513Z,0
2019-05-07T02:50:08.415Z,0
2019-05-07T02:51:06.885Z,0
2019-05-07T02:52:08.944Z,0
2019-05-07T02:53:06.958Z,0
2019-05-07T02:54:06.430Z,0
2019-05-07T02:55:09.370Z,0
2019-05-07T02:56:06.333Z,0
2019-05-07T02:57:08.525Z,0
2019-05-07T02:58:08.714Z,0
2019-05-07T02:59:06.806Z,0
2019-05-07T03:00:09.505Z,0
2019-05-07T03:01:07.913Z,0
2019-05-07T03:02:08.930Z,0
2019-05-07T03:03:07.109Z,0
2019-05-07T03:04:08.774Z,0
2019-05-07T03:05:08.033Z,0
2019-05-07T03:06:08.358Z,0
2019-05-07T03:07:06.648Z,0
2019-05-07T03:08:08.393Z,0
2019-05-07T03:09:08.391Z,0
2019-05-07T03:10:08.896Z,0
2019-05-07T03:11:08.466Z,0
2019-05-07T03:12:09.091Z,0
2019-05-07T03:13:08.543Z,0
2019-05-07T03:14:08.141Z,0
2019-05-07T03:15:07.348Z,0
2019-05-07T03:16:06.488Z,0
2019-05-07T03:17:08.493Z,0
2019-05-07T03:18:08.805Z,0
2019-05-07T03:19:06.901Z,0
2019-05-07T03:20:08.847Z,0
2019-05-07T03:21:06.274Z,0
2019-05-07T03:22:09.078Z,0
2019-05-07T03:23:08.894Z,0
2019-05-07T03:24:23.026Z,0
2019-05-07T03:25:08.455Z,0
2019-05-07T03:26:06.948Z,0
2019-05-07T03:27:08.515Z,0
2019-05-07T03:28:07.084Z,0
2019-05-07T03:29:09.053Z,0
2019-05-07T03:30:15.173Z,0
2019-05-07T03:31:15.929Z,0
2019-05-07T03:32:15.705Z,0
2019-05-07T03:33:16.002Z,0
2019-05-07T03:34:16.036Z,0
2019-05-07T03:35:19.233Z,0
2019-05-07T03:36:19.082Z,0
2019-05-07T03:37:13.467Z,0
2019-05-07T03:38:08.848Z,0
2019-05-07T03:39:06.109Z,0
2019-05-07T03:40:09.290Z,0
2019-05-07T03:41:08.980Z,0
2019-05-07T03:42:08.826Z,0
2019-05-07T03:43:13.445Z,0
2019-05-07T03:44:06.411Z,0
2019-05-07T03:45:09.007Z,0
2019-05-07T03:50:25.989Z,0
2019-05-07T03:50:39.102Z,0
2019-05-07T03:51:46.991Z,0
2019-05-07T03:52:38.888Z,0
2019-05-07T03:53:39.359Z,0
2019-05-07T03:54:43.020Z,0
2019-05-07T03:55:38.576Z,0
2019-05-07T03:56:38.396Z,0
2019-05-07T03:57:38.797Z,0
2019-05-07T03:58:39.389Z,0
2019-05-07T03:59:39.582Z,0
2019-05-07T04:00:38.749Z,0
2019-05-07T04:01:38.838Z,0
2019-05-07T04:02:38.477Z,0
2019-05-07T04:03:39.556Z,0
2019-05-07T04:04:38.449Z,0
2019-05-07T04:05:39.625Z,0
2019-05-07T04:06:38.842Z,0
2019-05-07T04:07:39.191Z,0
2019-05-07T04:08:38.973Z,0
2019-05-07T04:09:53.204Z,0
2019-05-07T04:10:39.169Z,0
2019-05-07T04:11:38.992Z,0
2019-05-07T04:12:39.570Z,0
2019-05-07T04:13:40.007Z,0
2019-05-07T04:14:42.883Z,0
2019-05-07T04:15:38.340Z,0
2019-05-07T04:16:38.577Z,0
2019-05-07T04:17:42.934Z,0
2019-05-07T04:18:43.634Z,0
2019-05-07T04:19:38.146Z,0
2019-05-07T04:20:43.144Z,0
2019-05-07T04:21:39.773Z,0
2019-05-07T04:22:45.685Z,0
2019-05-07T04:23:39.621Z,0
2019-05-07T04:24:38.667Z,0
2019-05-07T04:25:43.415Z,0
2019-05-07T04:26:39.216Z,0
2019-05-07T04:27:38.582Z,0
2019-05-07T04:28:43.552Z,0
2019-05-07T04:29:42.805Z,0
2019-05-07T04:30:39.056Z,0
2019-05-07T04:31:42.919Z,0
2019-05-07T04:32:38.976Z,0
2019-05-07T04:33:38.691Z,0
2019-05-07T04:34:39.005Z,5
2019-05-07T04:35:43.019Z,5
2019-05-07T04:36:39.508Z,5
2019-05-07T04:37:38.466Z,5
2019-05-07T04:38:38.682Z,5
2019-05-07T04:46:14.313Z,5
2019-05-07T04:47:56.285Z,5
2019-05-07T04:48:28.356Z,5
2019-05-07T04:49:28.950Z,5
2019-05-07T04:50:56.903Z,5
2019-05-07T04:51:28.421Z,5
2019-05-07T04:52:29.003Z,5
2019-05-07T04:53:28.831Z,5
2019-05-07T04:54:28.834Z,5
2019-05-07T04:55:28.224Z,5
2019-05-07T04:56:29.232Z,10
2019-05-07T04:57:29.135Z,10
2019-05-07T04:58:29.474Z,10
2019-05-07T04:59:29.069Z,10
2019-05-07T05:00:28.208Z,10
2019-05-07T05:01:28.649Z,10
2019-05-07T05:02:28.674Z,10
2019-05-07T05:03:28.802Z,10
2019-05-07T05:04:43.851Z,10
2019-05-07T05:05:28.650Z,10
2019-05-07T05:06:26.884Z,10
2019-05-07T05:07:27.728Z,10
2019-05-07T05:08:28.755Z,15
2019-05-07T05:10:28.441Z,15
2019-05-07T05:11:26.403Z,15
2019-05-07T05:12:28.503Z,15
2019-05-07T05:13:28.614Z,15
2019-05-07T05:14:28.067Z,15
2019-05-07T05:15:27.393Z,15
2019-05-07T05:16:27.667Z,15
2019-05-07T05:17:28.046Z,15
2019-05-07T05:18:27.256Z,15
2019-05-07T05:19:25.762Z,15
2019-05-07T05:20:27.463Z,15
2019-05-07T05:21:27.967Z,15
2019-05-07T05:22:29.175Z,15
2019-05-07T05:23:27.916Z,20
2019-05-07T05:24:27.843Z,15
2019-05-07T05:25:27.974Z,15
2019-05-07T05:26:27.162Z,15
2019-05-07T05:27:30.018Z,20
2019-05-07T05:28:28.199Z,20
2019-05-07T05:29:28.474Z,20
2019-05-07T05:30:27.210Z,20
2019-05-07T05:31:27.523Z,20
2019-05-07T05:32:29.652Z,20
2019-05-07T05:33:26.244Z,20
2019-05-07T05:34:27.566Z,20
2019-05-07T05:35:27.443Z,20
2019-05-07T05:36:27.433Z,20
2019-05-07T05:37:27.868Z,20
2019-05-07T05:38:27.756Z,20
2019-05-07T05:40:27.869Z,20
2019-05-07T05:41:28.114Z,20
2019-05-07T05:42:27.732Z,20
2019-05-07T05:43:28.291Z,20
2019-05-07T05:50:53.563Z,20
2019-05-07T05:52:07.359Z,20
2019-05-07T05:53:07.187Z,20
2019-05-07T05:54:07.297Z,20
2019-05-07T05:55:08.410Z,20
2019-05-07T05:56:07.574Z,25
2019-05-07T05:57:08.098Z,25
2019-05-07T05:58:05.515Z,25
2019-05-07T05:59:06.403Z,25
2019-05-07T06:00:08.075Z,25
2019-05-07T06:01:05.205Z,25
2019-05-07T06:02:09.086Z,25
2019-05-07T06:03:05.342Z,25
2019-05-07T06:04:05.658Z,30
2019-05-07T06:05:07.512Z,30
2019-05-07T06:06:07.293Z,30
2019-05-07T06:07:25.284Z,35
2019-05-07T06:08:06.883Z,30
2019-05-07T06:09:07.105Z,30
2019-05-07T06:10:07.754Z,35
2019-05-07T06:11:05.288Z,30
2019-05-07T06:12:05.534Z,30
2019-05-07T06:13:06.937Z,35
2019-05-07T06:14:06.332Z,35
2019-05-07T06:15:07.040Z,35
2019-05-07T06:16:05.747Z,35
2019-05-07T06:17:08.337Z,35
2019-05-07T06:18:20.604Z,35
2019-05-07T06:19:22.574Z,35
2019-05-07T06:20:05.814Z,35
2019-05-07T06:21:05.658Z,35
2019-05-07T06:22:07.372Z,35
2019-05-07T06:23:08.388Z,35
2019-05-07T06:24:07.748Z,35
2019-05-07T06:25:07.678Z,35
2019-05-07T06:26:12.368Z,35
2019-05-07T06:27:06.052Z,35
2019-05-07T06:28:07.082Z,35
2019-05-07T06:29:05.853Z,35
2019-05-07T06:30:11.896Z,35
2019-05-07T06:31:08.046Z,40
2019-05-07T06:32:05.849Z,40
2019-05-07T06:33:05.641Z,40
2019-05-07T06:34:52.108Z,40
2019-05-07T06:35:06.034Z,40
2019-05-07T06:36:06.063Z,50
2019-05-07T06:37:06.318Z,80
2019-05-07T06:38:05.894Z,40
2019-05-07T06:39:07.132Z,45
2019-05-07T06:40:06.474Z,65
2019-05-07T06:41:07.926Z,50
2019-05-07T06:42:07.402Z,95
2019-05-07T06:43:05.891Z,70
2019-05-07T06:44:07.838Z,55
2019-05-07T06:45:05.678Z,80
2019-05-07T06:46:07.098Z,75
2019-05-07T06:47:05.243Z,70
2019-05-07T06:48:05.967Z,85
2019-05-07T06:49:07.586Z,160
2019-05-07T06:50:05.858Z,170
2019-05-07T06:51:05.865Z,145
2019-05-07T06:52:08.136Z,80
2019-05-07T06:53:05.484Z,105
2019-05-07T06:54:08.029Z,95
2019-05-07T06:55:05.995Z,155
2019-05-07T06:56:08.695Z,145
2019-05-07T06:57:07.105Z,95
2019-05-07T06:58:08.320Z,75
2019-05-07T06:59:07.512Z,135
2019-05-07T07:00:08.649Z,130
2019-05-07T07:01:05.046Z,125
2019-05-07T07:02:08.458Z,115
2019-05-07T07:03:07.269Z,100
2019-05-07T07:04:08.502Z,105
2019-05-07T07:05:08.038Z,90
2019-05-07T07:06:05.453Z,110
2019-05-07T07:07:08.038Z,105
2019-05-07T07:08:08.653Z,80
2019-05-07T07:09:07.556Z,150
2019-05-07T07:10:08.523Z,105
2019-05-07T07:11:07.892Z,120
2019-05-07T07:12:08.712Z,100
2019-05-07T07:13:08.744Z,130
2019-05-07T07:14:07.769Z,135
2019-05-07T07:15:07.977Z,105
2019-05-07T07:16:07.151Z,120
2019-05-07T07:17:05.415Z,100
2019-05-07T07:18:08.452Z,95
2019-05-07T07:19:08.640Z,85
2019-05-07T07:20:07.969Z,75
2019-05-07T07:21:07.308Z,95
2019-05-07T07:22:06.107Z,110
2019-05-07T07:23:07.564Z,155
2019-05-07T07:24:05.727Z,155
2019-05-07T07:25:08.846Z,150
2019-05-07T07:26:08.602Z,160
2019-05-07T07:27:07.688Z,150
2019-05-07T07:28:05.627Z,155
2019-05-07T07:29:07.190Z,110
2019-05-07T07:30:07.283Z,135
2019-05-07T07:31:06.063Z,150
2019-05-07T07:32:05.453Z,160
2019-05-07T07:33:06.488Z,160
2019-05-07T07:34:08.146Z,175
2019-05-07T07:35:05.166Z,165
2019-05-07T07:36:07.666Z,160
2019-05-07T07:37:22.903Z,180
2019-05-07T07:38:06.167Z,180
2019-05-07T07:39:07.305Z,170
2019-05-07T07:40:07.326Z,130
2019-05-07T07:41:08.162Z,120
2019-05-07T07:42:06.243Z,155
2019-05-07T07:43:09.404Z,155
2019-05-07T07:44:07.586Z,160
2019-05-07T07:45:05.877Z,160
2019-05-07T07:46:07.577Z,160
2019-05-07T07:47:05.332Z,145
2019-05-07T07:48:07.935Z,140
2019-05-07T07:49:24.952Z,140
2019-05-07T07:50:07.591Z,115
2019-05-07T07:51:06.007Z,120
2019-05-07T07:56:23.009Z,120
2019-05-07T07:56:48.729Z,130
2019-05-07T07:57:35.129Z,130
2019-05-07T07:58:37.429Z,70
2019-05-07T07:59:35.904Z,120
2019-05-07T08:00:38.299Z,100
2019-05-07T08:01:35.648Z,110
2019-05-07T08:02:34.918Z,100
2019-05-07T08:03:35.792Z,85
2019-05-07T08:04:34.829Z,80
2019-05-07T08:05:35.268Z,80
2019-05-07T08:06:35.314Z,85
2019-05-07T08:07:35.732Z,90
2019-05-07T08:08:34.698Z,95
2019-05-07T08:09:37.667Z,100
2019-05-07T08:10:35.273Z,100
2019-05-07T08:11:37.024Z,90
2019-05-07T08:12:35.272Z,80
2019-05-07T08:13:35.420Z,70
2019-05-07T08:14:35.264Z,85
2019-05-07T08:15:38.187Z,85
2019-05-07T08:16:35.443Z,80
2019-05-07T08:17:35.322Z,90
2019-05-07T08:18:35.559Z,80
2019-05-07T08:19:38.369Z,85
2019-05-07T08:20:35.400Z,80
2019-05-07T08:21:36.002Z,85
2019-05-07T08:22:35.619Z,85
2019-05-07T08:23:37.325Z,80
2019-05-07T08:24:37.188Z,80
2019-05-07T08:25:37.482Z,75
2019-05-07T08:26:34.991Z,80
2019-05-07T08:27:35.202Z,80
2019-05-07T08:28:37.133Z,75
2019-05-07T08:29:35.361Z,90
2019-05-07T08:30:35.407Z,85
2019-05-07T08:31:35.063Z,85
2019-05-07T08:32:35.336Z,75
2019-05-07T08:33:37.390Z,80
2019-05-07T08:34:35.369Z,85
2019-05-07T08:35:35.340Z,80
2019-05-07T08:36:36.163Z,70
2019-05-07T08:37:37.361Z,75
2019-05-07T08:38:38.020Z,80
2019-05-07T08:39:37.882Z,90
2019-05-07T08:40:35.238Z,90
2019-05-07T08:41:37.112Z,90
2019-05-07T08:42:35.004Z,85
2019-05-07T08:43:34.910Z,85
2019-05-07T08:44:35.184Z,85
2019-05-07T08:45:37.946Z,75
2019-05-07T08:46:36.564Z,80
2019-05-07T08:47:37.196Z,80
2019-05-07T08:48:35.031Z,80
2019-05-07T08:49:52.331Z,80
2019-05-07T08:50:35.345Z,85
2019-05-07T08:51:36.931Z,80
2019-05-07T08:52:37.940Z,85
2019-05-07T08:53:35.493Z,85
2019-05-07T08:54:37.769Z,85
2019-05-07T08:55:34.966Z,85
2019-05-07T08:56:37.023Z,85
2019-05-07T08:57:37.293Z,85
2019-05-07T08:58:36.962Z,85
2019-05-07T08:59:37.126Z,85
2019-05-07T09:00:35.333Z,80
2019-05-07T09:01:35.190Z,65
2019-05-07T09:02:35.266Z,65
2019-05-07T09:03:37.565Z,65
2019-05-07T09:04:35.427Z,60
2019-05-07T09:05:35.064Z,70
2019-05-07T09:06:37.798Z,70
2019-05-07T09:07:34.928Z,70
2019-05-07T09:08:34.750Z,70
2019-05-07T09:09:35.275Z,70
2019-05-07T09:10:37.648Z,70
2019-05-07T09:11:37.165Z,75
2019-05-07T09:12:37.292Z,75
2019-05-07T09:13:35.968Z,75
2019-05-07T09:14:37.303Z,80
2019-05-07T09:15:37.298Z,85
2019-05-07T09:16:37.091Z,85
2019-05-07T09:17:37.144Z,85
2019-05-07T09:18:35.239Z,85
2019-05-07T09:19:47.134Z,80
2019-05-07T09:20:42.464Z,85
2019-05-07T09:21:34.897Z,85
2019-05-07T09:22:35.125Z,85
2019-05-07T09:23:37.144Z,90
2019-05-07T09:24:36.168Z,90
2019-05-07T09:25:35.309Z,90
2019-05-07T09:26:35.013Z,85
2019-05-07T09:27:35.486Z,85
2019-05-07T09:28:35.276Z,85
2019-05-07T09:29:35.037Z,90
2019-05-07T09:30:38.295Z,90
2019-05-07T09:31:34.896Z,75
2019-05-07T09:32:35.376Z,40
2019-05-07T09:33:37.150Z,40
2019-05-07T09:34:35.374Z,40
2019-05-07T09:35:34.854Z,40
2019-05-07T09:36:35.776Z,40
2019-05-07T09:37:35.395Z,40
2019-05-07T09:38:35.434Z,50
2019-05-07T09:39:35.215Z,75
2019-05-07T09:40:37.159Z,85
2019-05-07T09:41:35.486Z,70
2019-05-07T09:42:36.251Z,85
2019-05-07T09:43:35.285Z,95
2019-05-07T09:44:35.198Z,95
2019-05-07T09:45:35.530Z,45
2019-05-07T09:46:35.312Z,80
2019-05-07T09:47:35.275Z,90
2019-05-07T09:48:37.212Z,90
2019-05-07T09:49:35.354Z,85
2019-05-07T09:50:35.831Z,80
2019-05-07T09:51:37.431Z,45
2019-05-07T09:52:37.373Z,40
2019-05-07T09:53:34.864Z,40
2019-05-07T09:54:35.310Z,35
2019-05-07T09:55:35.313Z,35
2019-05-07T09:56:37.567Z,35
2019-05-07T09:57:45.007Z,35
2019-05-07T09:58:47.891Z,35
2019-05-07T09:59:35.195Z,35
2019-05-07T10:00:37.496Z,35
2019-05-07T10:01:37.252Z,35
2019-05-07T10:02:37.239Z,35
2019-05-07T10:03:37.637Z,35
2019-05-07T10:04:35.394Z,30
2019-05-07T10:05:37.320Z,30
2019-05-07T10:06:35.017Z,30
2019-05-07T10:07:37.579Z,30
2019-05-07T10:08:37.299Z,25
2019-05-07T10:09:35.549Z,25
2019-05-07T10:10:35.573Z,25
2019-05-07T10:11:35.605Z,30
2019-05-07T10:12:35.948Z,30
2019-05-07T10:13:35.712Z,25
2019-05-07T10:14:35.839Z,25
2019-05-07T10:15:35.829Z,25
2019-05-07T10:16:34.874Z,25
2019-05-07T10:17:35.436Z,30
2019-05-07T10:18:35.158Z,30
2019-05-07T10:19:35.195Z,30
2019-05-07T10:20:35.518Z,25
2019-05-07T10:21:34.882Z,30
2019-05-07T10:22:37.326Z,30
2019-05-07T10:23:35.028Z,30
2019-05-07T10:24:35.106Z,30
2019-05-07T10:25:35.397Z,30
2019-05-07T10:26:34.899Z,30
2019-05-07T10:27:35.216Z,30
2019-05-07T10:28:37.373Z,30
2019-05-07T10:29:35.343Z,35
2019-05-07T10:30:35.213Z,35
2019-05-07T10:31:37.165Z,35
2019-05-07T10:32:34.973Z,35
2019-05-07T10:33:37.048Z,35
2019-05-07T10:34:34.843Z,35
2019-05-07T10:35:38.709Z,35
2019-05-07T10:36:37.505Z,30
2019-05-07T10:37:37.062Z,30
2019-05-07T10:38:34.871Z,30
2019-05-07T10:39:35.267Z,30
2019-05-07T10:40:35.472Z,30
2019-05-07T10:41:37.048Z,30
2019-05-07T10:42:35.436Z,30
2019-05-07T10:43:37.896Z,30
2019-05-07T10:44:37.282Z,30
2019-05-07T10:45:34.977Z,30
2019-05-07T10:46:38.194Z,30
2019-05-07T10:47:34.856Z,30
2019-05-07T10:48:37.512Z,30
2019-05-07T10:49:36.954Z,30
2019-05-07T10:50:47.742Z,30
2019-05-07T10:51:34.913Z,30
2019-05-07T10:52:36.983Z,30
2019-05-07T10:53:37.283Z,30
2019-05-07T10:54:35.402Z,30
2019-05-07T10:55:35.577Z,30
2019-05-07T10:56:35.498Z,30
2019-05-07T10:57:35.521Z,30
2019-05-07T10:58:37.172Z,30
2019-05-07T10:59:34.840Z,35
2019-05-07T11:00:36.227Z,35
2019-05-07T11:01:35.531Z,35
2019-05-07T11:02:39.243Z,35
2019-05-07T11:03:37.529Z,35
2019-05-07T11:04:53.050Z,35
2019-05-07T11:05:37.935Z,35
2019-05-07T11:06:35.343Z,35
2019-05-07T11:07:35.489Z,35
2019-05-07T11:08:38.203Z,35
2019-05-07T11:09:35.469Z,35
2019-05-07T11:10:35.451Z,35
2019-05-07T11:11:37.609Z,40
2019-05-07T11:12:37.534Z,40
2019-05-07T11:13:35.083Z,45
2019-05-07T11:15:42.885Z,45
2019-05-07T11:15:55.352Z,45
2019-05-07T11:16:54.751Z,45
2019-05-07T11:17:55.132Z,50
2019-05-07T11:18:54.427Z,50
2019-05-07T11:19:54.015Z,45
2019-05-07T11:21:03.004Z,45
2019-05-07T11:21:54.757Z,45
2019-05-07T11:22:54.945Z,50
2019-05-07T11:23:55.156Z,50
2019-05-07T11:24:54.908Z,50
2019-05-07T11:25:55.336Z,50
2019-05-07T11:26:55.768Z,50
2019-05-07T11:27:55.057Z,55
2019-05-07T11:28:54.046Z,55
2019-05-07T11:29:54.395Z,55
2019-05-07T11:30:53.978Z,55
2019-05-07T11:31:55.935Z,55
2019-05-07T11:32:54.912Z,55
2019-05-07T11:33:54.752Z,75
2019-05-07T11:34:57.027Z,55
2019-05-07T11:35:55.437Z,65
2019-05-07T11:36:55.042Z,65
2019-05-07T11:37:57.278Z,65
2019-05-07T11:38:55.395Z,55
2019-05-07T11:39:55.197Z,55
2019-05-07T11:40:54.451Z,60
2019-05-07T11:41:54.466Z,70
2019-05-07T11:42:57.255Z,65
2019-05-07T11:43:56.766Z,60
2019-05-07T11:44:55.612Z,65
2019-05-07T11:45:58.895Z,55
2019-05-07T11:46:57.624Z,55
2019-05-07T11:47:54.396Z,55
2019-05-07T11:48:55.015Z,65
2019-05-07T11:49:55.083Z,60
2019-05-07T11:55:26.408Z,70
2019-05-07T11:55:37.389Z,60
2019-05-07T11:56:38.093Z,55
2019-05-07T11:57:37.429Z,65
2019-05-07T11:58:37.848Z,75
2019-05-07T11:59:38.253Z,55
2019-05-07T12:00:37.690Z,55
2019-05-07T12:01:58.388Z,45
2019-05-07T12:02:39.793Z,45
2019-05-07T12:03:37.956Z,40
2019-05-07T12:04:39.886Z,35
2019-05-07T12:05:38.484Z,35
2019-05-07T12:06:37.890Z,35
2019-05-07T12:07:38.020Z,35
2019-05-07T12:08:59.476Z,35
2019-05-07T12:09:39.428Z,35
2019-05-07T12:10:38.487Z,40
2019-05-07T12:11:37.524Z,50
2019-05-07T12:12:38.126Z,45
2019-05-07T12:13:37.722Z,50
2019-05-07T12:14:42.932Z,40
2019-05-07T12:15:37.860Z,35
2019-05-07T12:16:39.736Z,40
2019-05-07T12:17:42.892Z,35
2019-05-07T12:18:40.049Z,35
2019-05-07T12:19:38.354Z,35
2019-05-07T12:20:37.851Z,40
2019-05-07T12:21:38.123Z,35
2019-05-07T12:22:37.457Z,35
2019-05-07T12:23:38.486Z,40
2019-05-07T12:24:38.389Z,35
2019-05-07T12:25:39.774Z,35
2019-05-07T12:26:38.023Z,35
2019-05-07T12:27:37.569Z,35
2019-05-07T12:28:38.075Z,35
2019-05-07T12:29:37.746Z,35
2019-05-07T12:30:38.407Z,35
2019-05-07T12:31:39.099Z,35
2019-05-07T12:32:37.631Z,30
2019-05-07T12:33:37.759Z,30
2019-05-07T12:34:39.666Z,30
2019-05-07T12:35:37.459Z,30
2019-05-07T12:36:40.153Z,30
2019-05-07T12:37:39.785Z,25
2019-05-07T12:38:37.606Z,25
2019-05-07T12:39:39.576Z,25
2019-05-07T12:40:38.013Z,25
2019-05-07T12:41:39.056Z,25
2019-05-07T12:42:38.585Z,25
2019-05-07T12:43:39.770Z,20
2019-05-07T12:44:42.347Z,20
2019-05-07T12:45:37.547Z,20
2019-05-07T12:46:38.703Z,20
2019-05-07T12:47:37.708Z,20
2019-05-07T12:48:37.812Z,20
2019-05-07T12:49:37.783Z,20
2019-05-07T12:50:37.680Z,20
2019-05-07T12:51:47.926Z,20
2019-05-07T12:52:39.890Z,20
2019-05-07T12:53:39.609Z,20
2019-05-07T12:54:42.111Z,20
2019-05-07T12:55:37.782Z,20
2019-05-07T12:56:39.976Z,20
2019-05-07T12:57:37.461Z,20
2019-05-07T12:58:37.574Z,20
2019-05-07T12:59:37.560Z,20
2019-05-07T13:00:42.529Z,20
2019-05-07T13:01:38.007Z,20
2019-05-07T13:02:54.867Z,25
2019-05-07T13:03:37.643Z,25
2019-05-07T13:04:37.796Z,25
2019-05-07T13:05:37.740Z,25
2019-05-07T13:06:38.747Z,25
2019-05-07T13:07:38.387Z,30
2019-05-07T13:08:38.210Z,35
2019-05-07T13:09:40.271Z,35
2019-05-07T13:10:42.837Z,35
2019-05-07T13:11:37.810Z,40
2019-05-07T13:12:41.901Z,40
2019-05-07T13:13:42.213Z,45
2019-05-07T13:14:37.527Z,45
2019-05-07T13:15:43.232Z,65
2019-05-07T13:16:37.690Z,40
2019-05-07T13:17:39.002Z,40
2019-05-07T13:18:38.066Z,45
2019-05-07T13:19:41.978Z,45
2019-05-07T13:20:40.000Z,45
2019-05-07T13:21:54.199Z,40
2019-05-07T13:22:37.824Z,40
2019-05-07T13:23:39.710Z,40
2019-05-07T13:24:39.804Z,45
2019-05-07T13:25:40.447Z,65
2019-05-07T13:26:39.996Z,65
2019-05-07T13:27:43.014Z,65
2019-05-07T13:28:37.553Z,45
2019-05-07T13:29:38.367Z,50
2019-05-07T13:30:38.164Z,70
2019-05-07T13:31:40.347Z,60
2019-05-07T13:32:41.842Z,70
2019-05-07T13:33:44.745Z,45
2019-05-07T13:34:42.499Z,40
2019-05-07T13:35:38.216Z,35
2019-05-07T13:36:40.272Z,35
2019-05-07T13:37:37.778Z,55
2019-05-07T13:38:42.523Z,75
2019-05-07T13:39:37.957Z,70
2019-05-07T13:40:42.301Z,40
2019-05-07T13:41:38.316Z,65
2019-05-07T13:42:41.905Z,65
2019-05-07T13:43:37.878Z,75
2019-05-07T13:44:39.775Z,85
2019-05-07T13:45:41.616Z,90
2019-05-07T13:46:37.598Z,85
2019-05-07T13:47:38.138Z,85
2019-05-07T13:48:39.658Z,85
2019-05-07T13:49:38.102Z,85
2019-05-07T13:50:37.973Z,80
2019-05-07T13:51:41.766Z,75
2019-05-07T13:52:38.759Z,70
2019-05-07T13:53:38.439Z,80
2019-05-07T13:54:37.722Z,75
2019-05-07T13:55:41.993Z,75
2019-05-07T13:56:37.912Z,60
2019-05-07T13:57:41.662Z,35
2019-05-07T13:58:38.142Z,30
2019-05-07T13:59:39.852Z,30
2019-05-07T14:00:37.707Z,30
2019-05-07T14:01:38.066Z,30
2019-05-07T14:02:39.562Z,30
2019-05-07T14:03:38.830Z,30
2019-05-07T14:04:37.836Z,25
2019-05-07T14:05:42.442Z,25
2019-05-07T14:06:37.703Z,30
2019-05-07T14:07:37.592Z,45
2019-05-07T14:08:39.901Z,40
2019-05-07T14:09:37.884Z,40
2019-05-07T14:10:47.809Z,30
2019-05-07T14:11:42.296Z,30
2019-05-07T14:12:42.505Z,30
2019-05-07T14:13:38.443Z,30
2019-05-07T14:14:42.655Z,30
2019-05-07T14:15:42.598Z,30
2019-05-07T14:16:37.975Z,30
2019-05-07T14:17:38.902Z,35
2019-05-07T14:18:37.945Z,35
2019-05-07T14:19:38.034Z,60
2019-05-07T14:20:38.385Z,45
2019-05-07T14:21:37.838Z,60
2019-05-07T14:26:58.193Z,30
2019-05-07T14:28:10.159Z,35
2019-05-07T14:29:10.963Z,35
2019-05-07T14:30:12.768Z,30
2019-05-07T14:31:12.132Z,35
2019-05-07T14:32:10.189Z,30
2019-05-07T14:33:12.394Z,35
2019-05-07T14:34:12.479Z,60
2019-05-07T14:35:12.175Z,60
2019-05-07T14:36:11.930Z,30
2019-05-07T14:37:12.984Z,30
2019-05-07T14:38:09.218Z,35
2019-05-07T14:39:12.874Z,40
2019-05-07T14:40:12.746Z,35
2019-05-07T14:41:10.572Z,45
2019-05-07T14:42:10.501Z,40
2019-05-07T14:43:12.565Z,30
2019-05-07T14:44:09.442Z,25
2019-05-07T14:45:09.306Z,25
2019-05-07T14:46:11.965Z,25
2019-05-07T14:47:12.552Z,25
2019-05-07T14:48:12.124Z,25
2019-05-07T14:49:12.035Z,25
2019-05-07T14:56:37.634Z,60
2019-05-07T14:56:51.771Z,35
2019-05-07T14:57:49.915Z,25
2019-05-07T14:58:51.660Z,35
2019-05-07T14:59:52.366Z,25
2019-05-07T15:00:51.811Z,20
2019-05-07T15:01:52.187Z,20
2019-05-07T15:02:50.031Z,20
2019-05-07T15:03:51.658Z,20
2019-05-07T15:04:52.079Z,20
2019-05-07T15:05:50.130Z,20
2019-05-07T15:06:51.996Z,20
2019-05-07T15:07:48.976Z,20
2019-05-07T15:08:52.178Z,20
2019-05-07T15:09:51.863Z,20
2019-05-07T15:10:52.294Z,20
2019-05-07T15:11:52.581Z,20
2019-05-07T15:12:52.144Z,20
2019-05-07T15:13:52.165Z,20
2019-05-07T15:14:50.051Z,20
2019-05-07T15:15:48.619Z,20